createdAt,value
2022-11-02T00:03:30.867Z,99.90
2022-11-02T00:07:32.569Z,99.90
2022-11-02T00:11:34.198Z,99.90
2022-11-02T00:15:37.136Z,99.90
2022-11-02T00:19:38.795Z,99.90
2022-11-02T00:23:42.029Z,99.90
2022-11-02T00:27:44.143Z,99.90
2022-11-02T00:31:45.856Z,99.90
2022-11-02T00:35:47.620Z,99.90
2022-11-02T00:39:49.393Z,99.90
2022-11-02T00:43:51.032Z,99.90
2022-11-02T00:47:52.805Z,99.90
2022-11-02T00:51:54.623Z,99.90
2022-11-02T00:55:56.373Z,99.90
2022-11-02T00:59:58.134Z,99.90
2022-11-02T01:03:59.804Z,99.90
2022-11-02T01:08:01.836Z,99.90
2022-11-02T01:12:04.864Z,99.90
2022-11-02T01:16:07.343Z,99.90
2022-11-02T01:20:09.783Z,99.90
2022-11-02T01:24:11.502Z,99.90
2022-11-02T01:28:13.160Z,99.90
2022-11-02T01:32:14.848Z,99.90
2022-11-02T01:40:24.479Z,99.90
2022-11-02T01:44:27.807Z,99.80
2022-11-02T01:48:36.597Z,99.90
2022-11-02T01:52:39.998Z,99.90
2022-11-02T01:56:44.807Z,99.90
2022-11-02T02:00:46.733Z,99.90
2022-11-02T02:04:52.499Z,99.80
2022-11-02T02:08:57.238Z,99.90
2022-11-02T02:12:58.960Z,99.60
2022-11-02T02:17:26.858Z,99.80
2022-11-02T02:21:42.691Z,99.60
2022-11-02T02:26:22.007Z,99.50
2022-11-02T02:30:23.855Z,99.90
2022-11-02T02:34:43.085Z,99.90
2022-11-02T02:39:28.432Z,99.90
2022-11-02T02:43:37.199Z,99.90
2022-11-02T02:47:46.435Z,99.90
2022-11-02T02:51:48.476Z,99.90
2022-11-02T02:55:51.772Z,99.90
2022-11-02T02:59:55.099Z,99.90
2022-11-02T03:03:56.785Z,99.90
2022-11-02T03:08:04.991Z,99.90
2022-11-02T03:12:21.647Z,99.90
2022-11-02T03:17:02.647Z,99.90
2022-11-02T03:21:30.075Z,99.90
2022-11-02T03:25:50.511Z,99.90
2022-11-02T03:29:56.464Z,99.90
2022-11-02T03:34:21.051Z,99.90
2022-11-02T03:38:28.973Z,99.90
2022-11-02T03:42:34.468Z,99.90
2022-11-02T03:46:39.660Z,99.90
2022-11-02T03:50:46.447Z,99.90
2022-11-02T03:55:06.639Z,99.90
2022-11-02T03:59:08.659Z,99.90
2022-11-02T04:03:11.800Z,99.90
2022-11-02T04:07:13.959Z,99.90
2022-11-02T04:11:34.812Z,99.90
2022-11-02T04:15:36.465Z,99.90
2022-11-02T04:19:38.107Z,99.90
2022-11-02T04:23:58.124Z,99.90
2022-11-02T04:28:07.486Z,99.90
2022-11-02T04:32:09.184Z,99.90
2022-11-02T04:36:11.004Z,99.90
2022-11-02T04:40:12.786Z,99.90
2022-11-02T04:44:15.858Z,99.90
2022-11-02T04:48:17.507Z,99.90
2022-11-02T04:52:19.161Z,99.70
2022-11-02T04:56:21.752Z,99.70
2022-11-02T05:00:23.563Z,99.60
2022-11-02T05:04:25.281Z,99.60
2022-11-02T05:08:27.368Z,99.90
2022-11-02T05:12:29.421Z,99.90
2022-11-02T05:16:31.193Z,99.90
2022-11-02T05:20:33.363Z,99.90
2022-11-02T05:24:35.045Z,99.90
2022-11-02T05:28:36.880Z,99.90
2022-11-02T05:32:38.603Z,99.90
2022-11-02T05:36:40.259Z,99.90
2022-11-02T05:40:41.999Z,99.90
2022-11-02T05:44:43.726Z,99.80
2022-11-02T05:48:45.448Z,99.90
2022-11-02T05:52:47.568Z,99.90
2022-11-02T05:56:49.275Z,99.60
2022-11-02T06:00:50.957Z,99.50
2022-11-02T06:04:52.825Z,99.40
2022-11-02T06:08:55.020Z,99.10
2022-11-02T06:13:01.992Z,99.90
2022-11-02T06:17:03.810Z,99.90
2022-11-02T06:21:06.278Z,99.90
2022-11-02T06:25:08.974Z,99.90
2022-11-02T06:29:10.744Z,99.90
2022-11-02T06:33:12.900Z,99.70
2022-11-02T06:37:14.887Z,99.70
2022-11-02T06:41:16.617Z,99.90
2022-11-02T06:45:18.325Z,99.90
2022-11-02T06:49:20.068Z,99.90
2022-11-02T06:53:21.770Z,99.90
2022-11-02T06:57:23.545Z,99.90
2022-11-02T07:01:25.305Z,99.90
2022-11-02T07:05:27.191Z,99.90
2022-11-02T07:09:29.219Z,99.90
2022-11-02T07:13:30.897Z,99.90
2022-11-02T07:17:32.588Z,99.90
2022-11-02T07:21:35.868Z,99.90
2022-11-02T07:25:37.875Z,99.90
2022-11-02T07:29:39.648Z,99.90
2022-11-02T07:33:41.527Z,99.90
2022-11-02T07:37:43.612Z,99.90
2022-11-02T07:41:50.801Z,99.90
2022-11-02T07:45:53.515Z,99.90
2022-11-02T07:49:55.184Z,99.90
2022-11-02T07:53:56.883Z,99.90
2022-11-02T07:58:03.910Z,99.90
2022-11-02T08:02:05.588Z,99.90
2022-11-02T08:06:07.732Z,99.90
2022-11-02T08:10:09.648Z,99.90
2022-11-02T08:14:11.259Z,99.90
2022-11-02T08:18:15.618Z,99.90
2022-11-02T08:22:17.274Z,99.90
2022-11-02T08:26:18.937Z,99.90
2022-11-02T08:30:20.708Z,99.90
2022-11-02T08:34:22.369Z,99.90
2022-11-02T08:38:24.079Z,99.90
2022-11-02T08:42:25.934Z,99.90
2022-11-02T08:46:27.605Z,99.90
2022-11-02T08:50:29.253Z,99.90
2022-11-02T08:54:30.971Z,99.90
2022-11-02T08:58:32.627Z,99.90
2022-11-02T09:02:34.477Z,99.90
2022-11-02T09:06:36.285Z,99.90
2022-11-02T09:10:38.639Z,99.90
2022-11-02T09:14:40.285Z,99.90
2022-11-02T09:18:42.086Z,99.90
2022-11-02T09:22:44.283Z,99.90
2022-11-02T09:26:46.235Z,99.90
2022-11-02T09:30:48.341Z,99.90
2022-11-02T09:34:50.532Z,99.90
2022-11-02T09:38:52.301Z,99.90
2022-11-02T09:43:01.506Z,99.90
2022-11-02T09:47:55.971Z,99.90
2022-11-02T09:51:51.514Z,99.90
2022-11-02T09:55:58.524Z,99.90
2022-11-02T10:00:01.852Z,99.90
2022-11-02T10:04:32.857Z,99.90
2022-11-02T10:08:34.548Z,99.90
2022-11-02T10:12:45.326Z,99.90
2022-11-02T10:16:59.064Z,99.90
2022-11-02T10:21:12.189Z,99.50
2022-11-02T10:25:16.864Z,99.70
2022-11-02T10:29:26.638Z,99.10
2022-11-02T10:33:30.203Z,99.10
2022-11-02T10:37:42.718Z,99.20
2022-11-02T10:41:53.219Z,99.30
2022-11-02T10:46:04.275Z,99.40
2022-11-02T10:50:24.665Z,99.10
2022-11-02T10:54:30.935Z,99.00
2022-11-02T10:58:38.709Z,98.90
2022-11-02T11:02:40.368Z,98.50
2022-11-02T11:06:43.487Z,99.10
2022-11-02T11:10:45.803Z,98.20
2022-11-02T11:19:39.210Z,98.00
2022-11-02T11:23:41.829Z,97.40
2022-11-02T11:27:47.870Z,98.20
2022-11-02T11:31:49.767Z,97.90
2022-11-02T11:35:52.107Z,97.90
2022-11-02T11:39:59.245Z,97.70
2022-11-02T11:44:02.613Z,98.00
2022-11-02T11:48:23.808Z,98.10
2022-11-02T11:52:32.000Z,98.00
2022-11-02T11:56:35.065Z,97.70
2022-11-02T12:00:36.819Z,97.70
2022-11-02T12:04:38.806Z,97.70
2022-11-02T12:09:04.073Z,97.30
2022-11-02T12:13:39.667Z,97.40
2022-11-02T12:17:46.561Z,97.60
2022-11-02T12:22:09.480Z,97.50
2022-11-02T12:26:29.745Z,97.40
2022-11-02T12:30:42.524Z,97.50
2022-11-02T12:35:23.222Z,97.50
2022-11-02T12:39:53.283Z,97.30
2022-11-02T12:44:20.920Z,97.00
2022-11-02T12:48:39.504Z,97.40
2022-11-02T12:53:05.664Z,96.80
2022-11-02T12:57:13.125Z,96.10
2022-11-02T13:01:19.685Z,96.20
2022-11-02T13:05:34.648Z,97.40
2022-11-02T13:10:14.724Z,97.10
2022-11-02T13:14:20.262Z,96.90
2022-11-02T13:18:28.904Z,96.40
2022-11-02T13:22:36.814Z,96.40
2022-11-02T13:26:42.907Z,96.40
2022-11-02T13:30:45.486Z,96.70
2022-11-02T13:34:49.444Z,96.30
2022-11-02T13:39:04.463Z,96.30
2022-11-02T13:43:40.468Z,96.30
2022-11-02T13:48:08.830Z,96.10
2022-11-02T13:52:15.231Z,95.80
2022-11-02T13:56:24.280Z,95.90
2022-11-02T14:00:43.730Z,95.50
2022-11-02T14:04:48.423Z,95.50
2022-11-02T14:09:09.164Z,95.80
2022-11-02T14:13:17.307Z,95.80
2022-11-02T14:17:19.248Z,95.60
2022-11-02T14:22:00.775Z,96.30
2022-11-02T14:26:02.521Z,96.80
2022-11-02T14:30:04.528Z,96.30
2022-11-02T14:34:15.140Z,96.70
2022-11-02T14:38:37.187Z,96.40
2022-11-02T14:42:53.224Z,96.70
2022-11-02T14:47:06.263Z,96.60
2022-11-02T14:51:16.535Z,96.00
2022-11-02T14:55:18.164Z,96.00
2022-11-02T14:59:27.513Z,95.50
2022-11-02T15:03:32.642Z,96.00
2022-11-02T15:07:40.137Z,95.20
2022-11-02T15:11:44.980Z,95.10
2022-11-02T15:15:55.989Z,94.90
2022-11-02T15:19:57.583Z,94.60
2022-11-02T15:24:16.773Z,94.60
2022-11-02T15:28:29.597Z,94.90
2022-11-02T15:32:37.896Z,95.30
2022-11-02T15:36:42.488Z,96.00
2022-11-02T15:40:51.046Z,96.00
2022-11-02T15:45:33.921Z,96.30
2022-11-02T15:50:08.260Z,96.60
2022-11-02T15:54:27.780Z,96.90
2022-11-02T15:58:43.886Z,97.70
2022-11-02T16:02:53.025Z,97.30
2022-11-02T16:06:55.623Z,97.80
2022-11-02T16:11:05.483Z,97.80
2022-11-02T16:15:18.306Z,97.80
2022-11-02T16:19:21.917Z,97.80
2022-11-02T16:23:26.695Z,98.30
2022-11-02T16:27:28.427Z,98.10
2022-11-02T16:31:33.355Z,98.20
2022-11-02T16:35:35.108Z,98.40
2022-11-02T16:39:39.646Z,98.30
2022-11-02T16:43:45.765Z,99.10
2022-11-02T16:47:47.744Z,99.50
2022-11-02T16:51:56.590Z,99.20
2022-11-02T16:56:13.446Z,99.00
2022-11-02T17:00:19.789Z,98.90
2022-11-02T17:04:23.063Z,99.90
2022-11-02T17:08:33.962Z,99.70
2022-11-02T17:12:40.207Z,99.40
2022-11-02T17:16:58.613Z,99.50
2022-11-02T17:21:12.688Z,99.60
2022-11-02T17:25:33.607Z,99.70
2022-11-02T17:29:39.784Z,99.50
2022-11-02T17:33:43.910Z,99.90
2022-11-02T17:37:45.624Z,99.90
2022-11-02T17:42:12.017Z,99.70
2022-11-02T17:46:13.663Z,99.50
2022-11-02T17:50:15.730Z,99.70
2022-11-02T17:54:18.400Z,99.90
2022-11-02T17:58:20.129Z,99.80
2022-11-02T18:02:21.974Z,99.50
2022-11-02T18:06:24.043Z,99.10
2022-11-02T18:10:30.290Z,99.30
2022-11-02T18:14:32.146Z,99.00
2022-11-02T18:18:33.800Z,98.80
2022-11-02T18:22:35.472Z,98.70
2022-11-02T18:26:38.017Z,98.60
2022-11-02T18:30:44.161Z,98.60
2022-11-02T18:34:45.885Z,99.90
2022-11-02T18:38:47.891Z,99.90
2022-11-02T18:42:50.310Z,99.80
2022-11-02T18:46:52.035Z,99.30
2022-11-02T18:50:53.727Z,99.40
2022-11-02T18:54:56.437Z,98.80
2022-11-02T18:58:58.191Z,99.20
2022-11-02T19:03:00.097Z,98.90
2022-11-02T19:07:20.542Z,99.00
2022-11-02T19:11:22.235Z,98.80
2022-11-02T19:15:23.907Z,98.70
2022-11-02T19:19:25.689Z,99.80
2022-11-02T19:23:27.710Z,99.90
2022-11-02T19:27:29.393Z,99.90
2022-11-02T19:31:31.195Z,99.90
2022-11-02T19:35:32.936Z,99.60
2022-11-02T19:39:34.893Z,99.30
2022-11-02T19:43:41.145Z,99.10
2022-11-02T19:47:44.082Z,99.00
2022-11-02T19:51:45.836Z,98.60
2022-11-02T19:55:54.055Z,98.70
2022-11-02T19:59:55.758Z,99.10
2022-11-02T20:03:59.584Z,98.90
2022-11-02T20:08:01.283Z,98.40
2022-11-02T20:12:04.765Z,98.50
2022-11-02T20:16:07.775Z,98.60
2022-11-02T20:20:09.699Z,98.40
2022-11-02T20:24:12.005Z,98.30
2022-11-02T20:28:14.383Z,98.80
2022-11-02T20:32:20.261Z,98.80
2022-11-02T20:36:21.985Z,98.30
2022-11-02T20:40:24.657Z,98.70
2022-11-02T20:44:26.414Z,98.80
2022-11-02T20:48:29.117Z,98.90
2022-11-02T20:52:30.797Z,98.80
2022-11-02T20:56:32.474Z,98.70
2022-11-02T21:00:34.192Z,98.60
2022-11-02T21:04:35.934Z,98.80
2022-11-02T21:08:39.124Z,98.90
2022-11-02T21:12:59.263Z,98.80
2022-11-02T21:17:02.751Z,98.60
2022-11-02T21:21:09.656Z,98.50
2022-11-02T21:25:11.624Z,98.80
2022-11-02T21:29:13.503Z,98.50
2022-11-02T21:33:15.202Z,98.50
2022-11-02T21:37:16.840Z,98.20
2022-11-02T21:41:21.244Z,98.20
2022-11-02T21:45:26.114Z,98.50
2022-11-02T21:49:29.053Z,98.10
2022-11-02T21:53:31.965Z,98.00
2022-11-02T21:57:33.839Z,98.20
2022-11-02T22:01:45.211Z,97.90
2022-11-02T22:05:56.582Z,97.90
2022-11-02T22:09:58.244Z,98.00
2022-11-02T22:14:01.136Z,99.40
2022-11-02T22:18:02.771Z,99.30
2022-11-02T22:22:04.845Z,99.40
2022-11-02T22:26:10.169Z,99.20
2022-11-02T22:30:12.365Z,99.00
2022-11-02T22:34:15.435Z,98.80
2022-11-02T22:38:35.701Z,98.70
2022-11-02T22:42:39.887Z,98.50
2022-11-02T22:46:46.255Z,98.30
2022-11-02T22:50:47.954Z,99.00
2022-11-02T22:54:49.626Z,99.30
2022-11-02T22:58:51.392Z,99.60
2022-11-02T23:02:53.045Z,99.20
2022-11-02T23:06:54.704Z,99.00
2022-11-02T23:11:16.719Z,98.30
2022-11-02T23:15:18.383Z,98.00
2022-11-02T23:19:31.031Z,97.80
2022-11-02T23:23:51.700Z,98.20
2022-11-02T23:28:12.126Z,98.00
2022-11-02T23:32:27.909Z,98.20
2022-11-02T23:36:29.536Z,97.90
2022-11-02T23:40:32.644Z,97.80
2022-11-02T23:44:34.315Z,97.90
2022-11-02T23:48:35.968Z,98.40
2022-11-02T23:52:56.077Z,98.50
2022-11-02T23:56:57.915Z,99.10
